sensor_id;sensor_type;location;lat;lon;timestamp;P1;durP1;ratioP1;P2;durP2;ratioP2
23236;SDS011;11787;52.018;8.570;2022-07-29T04:30:25;5.10;;;1.65;;
23236;SDS011;11787;52.018;8.570;2022-07-29T04:32:51;5.03;;;1.63;;
23236;SDS011;11787;52.018;8.570;2022-07-29T04:35:17;3.58;;;1.55;;
23236;SDS011;11787;52.018;8.570;2022-07-29T04:37:43;2.80;;;1.00;;
23236;SDS011;11787;52.018;8.570;2022-07-29T06:43:57;3.17;;;1.40;;
23236;SDS011;11787;52.018;8.570;2022-07-29T06:46:24;6.22;;;1.60;;
23236;SDS011;11787;52.018;8.570;2022-07-29T06:48:50;7.25;;;1.33;;
23236;SDS011;11787;52.018;8.570;2022-07-29T06:51:17;9.80;;;1.55;;
23236;SDS011;11787;52.018;8.570;2022-07-29T07:20:27;4.30;;;1.50;;
23236;SDS011;11787;52.018;8.570;2022-07-29T07:22:53;4.97;;;1.25;;
23236;SDS011;11787;52.018;8.570;2022-07-29T07:25:18;3.30;;;1.38;;
23236;SDS011;11787;52.018;8.570;2022-07-29T07:27:44;4.28;;;1.35;;
23236;SDS011;11787;52.018;8.570;2022-07-29T07:30:10;3.03;;;1.30;;
23236;SDS011;11787;52.018;8.570;2022-07-29T07:32:36;2.72;;;1.00;;
23236;SDS011;11787;52.018;8.570;2022-07-29T07:35:02;6.25;;;1.70;;
23236;SDS011;11787;52.018;8.570;2022-07-29T07:37:29;8.32;;;1.35;;
23236;SDS011;11787;52.018;8.570;2022-07-29T07:39:55;6.95;;;1.42;;
23236;SDS011;11787;52.018;8.570;2022-07-29T07:42:20;4.90;;;1.48;;
23236;SDS011;11787;52.018;8.570;2022-07-29T07:44:46;3.17;;;1.20;;
23236;SDS011;11787;52.018;8.570;2022-07-29T07:47:13;4.85;;;1.42;;
23236;SDS011;11787;52.018;8.570;2022-07-29T07:49:39;3.38;;;1.33;;
23236;SDS011;11787;52.018;8.570;2022-07-29T07:52:05;3.83;;;1.33;;
23236;SDS011;11787;52.018;8.570;2022-07-29T07:54:31;4.35;;;1.50;;
23236;SDS011;11787;52.018;8.570;2022-07-29T07:56:56;5.15;;;1.30;;
23236;SDS011;11787;52.018;8.570;2022-07-29T07:59:22;4.80;;;1.48;;
23236;SDS011;11787;52.018;8.570;2022-07-29T08:01:48;3.78;;;1.10;;
23236;SDS011;11787;52.018;8.570;2022-07-29T08:04:14;3.60;;;1.00;;
23236;SDS011;11787;52.018;8.570;2022-07-29T08:06:39;2.78;;;1.40;;
23236;SDS011;11787;52.018;8.570;2022-07-29T08:09:05;3.85;;;1.40;;
23236;SDS011;11787;52.018;8.570;2022-07-29T08:11:31;3.40;;;1.25;;
23236;SDS011;11787;52.018;8.570;2022-07-29T08:13:57;9.18;;;1.90;;
23236;SDS011;11787;52.018;8.570;2022-07-29T08:16:23;11.57;;;2.13;;
23236;SDS011;11787;52.018;8.570;2022-07-29T08:18:50;5.32;;;1.50;;
23236;SDS011;11787;52.018;8.570;2022-07-29T08:21:17;3.78;;;1.33;;
23236;SDS011;11787;52.018;8.570;2022-07-29T08:23:45;6.35;;;1.42;;
23236;SDS011;11787;52.018;8.570;2022-07-29T08:26:15;6.13;;;1.40;;
23236;SDS011;11787;52.018;8.570;2022-07-29T08:28:42;2.92;;;1.33;;
23236;SDS011;11787;52.018;8.570;2022-07-29T08:31:10;6.00;;;1.45;;
23236;SDS011;11787;52.018;8.570;2022-07-29T08:33:37;2.65;;;1.23;;
23236;SDS011;11787;52.018;8.570;2022-07-29T08:36:03;3.90;;;1.15;;
23236;SDS011;11787;52.018;8.570;2022-07-29T08:38:29;3.42;;;1.10;;
23236;SDS011;11787;52.018;8.570;2022-07-29T08:40:55;4.10;;;1.17;;
23236;SDS011;11787;52.018;8.570;2022-07-29T08:43:20;4.03;;;1.17;;
23236;SDS011;11787;52.018;8.570;2022-07-29T08:45:47;5.25;;;1.45;;
23236;SDS011;11787;52.018;8.570;2022-07-29T08:48:15;3.15;;;1.20;;
23236;SDS011;11787;52.018;8.570;2022-07-29T08:50:45;4.15;;;1.30;;
23236;SDS011;11787;52.018;8.570;2022-07-29T08:53:13;6.35;;;1.42;;
23236;SDS011;11787;52.018;8.570;2022-07-29T08:55:45;4.30;;;1.10;;
23236;SDS011;11787;52.018;8.570;2022-07-29T08:58:12;3.65;;;1.30;;
23236;SDS011;11787;52.018;8.570;2022-07-29T09:00:43;3.85;;;1.30;;
23236;SDS011;11787;52.018;8.570;2022-07-29T09:03:12;4.13;;;1.27;;
23236;SDS011;11787;52.018;8.570;2022-07-29T09:05:41;3.88;;;1.20;;
23236;SDS011;11787;52.018;8.570;2022-07-29T11:07:07;4.93;;;1.75;;
23236;SDS011;11787;52.018;8.570;2022-07-29T11:09:33;4.82;;;1.98;;
23236;SDS011;11787;52.018;8.570;2022-07-29T13:45:07;2.78;;;1.90;;
23236;SDS011;11787;52.018;8.570;2022-07-29T13:57:18;6.05;;;2.40;;
23236;SDS011;11787;52.018;8.570;2022-07-29T13:59:44;6.78;;;2.22;;
23236;SDS011;11787;52.018;8.570;2022-07-29T14:02:10;6.75;;;2.08;;
23236;SDS011;11787;52.018;8.570;2022-07-29T14:04:37;3.67;;;1.83;;
23236;SDS011;11787;52.018;8.570;2022-07-29T14:07:02;7.30;;;1.80;;
23236;SDS011;11787;52.018;8.570;2022-07-29T14:09:28;6.30;;;2.10;;
23236;SDS011;11787;52.018;8.570;2022-07-29T14:11:54;4.57;;;2.20;;
23236;SDS011;11787;52.018;8.570;2022-07-29T14:14:20;5.25;;;1.90;;
23236;SDS011;11787;52.018;8.570;2022-07-29T14:16:45;7.93;;;2.03;;
23236;SDS011;11787;52.018;8.570;2022-07-29T14:19:11;7.57;;;2.22;;
23236;SDS011;11787;52.018;8.570;2022-07-29T14:21:37;7.53;;;2.20;;
23236;SDS011;11787;52.018;8.570;2022-07-29T14:24:04;5.60;;;1.70;;
23236;SDS011;11787;52.018;8.570;2022-07-29T14:26:29;5.47;;;2.15;;
23236;SDS011;11787;52.018;8.570;2022-07-29T14:28:55;5.15;;;1.55;;
23236;SDS011;11787;52.018;8.570;2022-07-29T14:31:21;7.30;;;1.90;;
23236;SDS011;11787;52.018;8.570;2022-07-29T14:33:46;6.05;;;1.80;;
23236;SDS011;11787;52.018;8.570;2022-07-29T14:36:12;4.20;;;2.25;;
23236;SDS011;11787;52.018;8.570;2022-07-29T14:38:38;10.65;;;2.33;;
23236;SDS011;11787;52.018;8.570;2022-07-29T14:41:05;5.47;;;2.05;;
23236;SDS011;11787;52.018;8.570;2022-07-29T14:43:31;8.75;;;2.00;;
23236;SDS011;11787;52.018;8.570;2022-07-29T14:45:57;4.07;;;1.80;;
23236;SDS011;11787;52.018;8.570;2022-07-29T14:48:22;4.88;;;1.90;;
23236;SDS011;11787;52.018;8.570;2022-07-29T14:50:48;8.15;;;1.95;;
23236;SDS011;11787;52.018;8.570;2022-07-29T14:53:13;7.63;;;1.95;;
23236;SDS011;11787;52.018;8.570;2022-07-29T14:55:39;4.88;;;1.80;;
23236;SDS011;11787;52.018;8.570;2022-07-29T14:58:06;8.82;;;2.35;;
23236;SDS011;11787;52.018;8.570;2022-07-29T15:00:32;5.30;;;1.80;;
23236;SDS011;11787;52.018;8.570;2022-07-29T15:03:02;4.30;;;1.80;;
23236;SDS011;11787;52.018;8.570;2022-07-29T15:05:28;6.20;;;3.97;;
23236;SDS011;11787;52.018;8.570;2022-07-29T15:07:54;8.05;;;2.30;;
23236;SDS011;11787;52.018;8.570;2022-07-29T15:10:20;3.75;;;2.03;;
23236;SDS011;11787;52.018;8.570;2022-07-29T17:34:07;7.45;;;2.83;;
23236;SDS011;11787;52.018;8.570;2022-07-29T17:36:33;8.63;;;2.78;;
23236;SDS011;11787;52.018;8.570;2022-07-29T17:39:00;9.38;;;3.17;;
23236;SDS011;11787;52.018;8.570;2022-07-29T17:41:28;5.80;;;3.20;;
23236;SDS011;11787;52.018;8.570;2022-07-29T17:43:53;8.43;;;3.20;;
23236;SDS011;11787;52.018;8.570;2022-07-29T17:46:20;11.88;;;3.50;;
23236;SDS011;11787;52.018;8.570;2022-07-29T19:52:45;6.40;;;4.40;;
23236;SDS011;11787;52.018;8.570;2022-07-29T19:55:11;7.65;;;4.88;;
23236;SDS011;11787;52.018;8.570;2022-07-29T19:57:37;6.97;;;4.40;;
23236;SDS011;11787;52.018;8.570;2022-07-29T20:03:25;9.05;;;4.38;;
23236;SDS011;11787;52.018;8.570;2022-07-29T20:05:51;8.68;;;4.82;;
23236;SDS011;11787;52.018;8.570;2022-07-29T20:08:17;6.45;;;4.65;;
23236;SDS011;11787;52.018;8.570;2022-07-29T20:10:42;7.60;;;4.90;;
23236;SDS011;11787;52.018;8.570;2022-07-29T20:13:08;7.78;;;5.03;;
23236;SDS011;11787;52.018;8.570;2022-07-29T20:15:34;7.90;;;4.82;;
23236;SDS011;11787;52.018;8.570;2022-07-29T20:17:59;9.77;;;5.13;;
23236;SDS011;11787;52.018;8.570;2022-07-29T20:20:25;6.53;;;4.85;;
23236;SDS011;11787;52.018;8.570;2022-07-29T20:22:51;6.03;;;5.13;;
23236;SDS011;11787;52.018;8.570;2022-07-29T20:25:17;9.10;;;5.68;;
23236;SDS011;11787;52.018;8.570;2022-07-29T20:27:43;9.80;;;4.85;;
23236;SDS011;11787;52.018;8.570;2022-07-29T20:30:08;8.20;;;4.68;;
23236;SDS011;11787;52.018;8.570;2022-07-29T20:32:37;9.27;;;5.15;;
23236;SDS011;11787;52.018;8.570;2022-07-29T20:35:04;8.45;;;5.13;;
23236;SDS011;11787;52.018;8.570;2022-07-29T20:37:30;7.13;;;4.50;;
23236;SDS011;11787;52.018;8.570;2022-07-29T20:39:56;8.80;;;4.93;;
23236;SDS011;11787;52.018;8.570;2022-07-29T20:42:22;7.40;;;4.50;;
23236;SDS011;11787;52.018;8.570;2022-07-29T20:44:47;8.68;;;4.95;;
23236;SDS011;11787;52.018;8.570;2022-07-29T20:47:15;5.85;;;4.65;;
23236;SDS011;11787;52.018;8.570;2022-07-29T20:49:40;6.80;;;4.88;;
23236;SDS011;11787;52.018;8.570;2022-07-29T20:52:06;6.57;;;4.60;;
23236;SDS011;11787;52.018;8.570;2022-07-29T20:54:32;7.90;;;5.18;;
23236;SDS011;11787;52.018;8.570;2022-07-29T20:56:58;6.30;;;5.00;;
23236;SDS011;11787;52.018;8.570;2022-07-29T20:59:23;6.13;;;4.53;;
23236;SDS011;11787;52.018;8.570;2022-07-29T21:01:49;8.23;;;5.32;;
23236;SDS011;11787;52.018;8.570;2022-07-29T21:04:15;8.05;;;5.43;;
23236;SDS011;11787;52.018;8.570;2022-07-29T22:22:09;7.40;;;5.20;;
23236;SDS011;11787;52.018;8.570;2022-07-29T22:24:35;5.82;;;5.25;;
23236;SDS011;11787;52.018;8.570;2022-07-29T22:34:17;6.20;;;5.03;;
23236;SDS011;11787;52.018;8.570;2022-07-29T22:36:43;7.65;;;5.65;;
23236;SDS011;11787;52.018;8.570;2022-07-29T22:39:09;9.02;;;5.50;;
23236;SDS011;11787;52.018;8.570;2022-07-29T22:41:34;8.23;;;5.75;;
23236;SDS011;11787;52.018;8.570;2022-07-29T22:44:00;6.60;;;5.07;;
23236;SDS011;11787;52.018;8.570;2022-07-29T22:46:26;9.15;;;5.78;;
23236;SDS011;11787;52.018;8.570;2022-07-29T22:48:51;7.60;;;5.53;;
23236;SDS011;11787;52.018;8.570;2022-07-29T22:51:17;5.95;;;5.07;;
23236;SDS011;11787;52.018;8.570;2022-07-29T22:53:42;7.18;;;5.97;;
23236;SDS011;11787;52.018;8.570;2022-07-29T22:56:08;7.38;;;5.93;;
23236;SDS011;11787;52.018;8.570;2022-07-29T22:58:34;6.13;;;5.47;;
23236;SDS011;11787;52.018;8.570;2022-07-29T23:00:59;7.25;;;6.38;;
23236;SDS011;11787;52.018;8.570;2022-07-29T23:03:25;6.70;;;6.03;;
23236;SDS011;11787;52.018;8.570;2022-07-29T23:05:50;6.43;;;5.57;;
23236;SDS011;11787;52.018;8.570;2022-07-29T23:08:17;7.70;;;5.05;;
23236;SDS011;11787;52.018;8.570;2022-07-29T23:10:43;6.32;;;5.72;;
23236;SDS011;11787;52.018;8.570;2022-07-29T23:13:09;7.00;;;5.22;;
23236;SDS011;11787;52.018;8.570;2022-07-29T23:15:35;7.22;;;5.40;;
23236;SDS011;11787;52.018;8.570;2022-07-29T23:18:00;9.93;;;7.15;;
23236;SDS011;11787;52.018;8.570;2022-07-29T23:20:26;7.82;;;5.60;;
23236;SDS011;11787;52.018;8.570;2022-07-29T23:22:52;7.63;;;6.82;;
23236;SDS011;11787;52.018;8.570;2022-07-29T23:25:18;8.80;;;6.90;;
23236;SDS011;11787;52.018;8.570;2022-07-29T23:27:43;9.48;;;6.57;;
23236;SDS011;11787;52.018;8.570;2022-07-29T23:30:09;11.13;;;8.00;;
23236;SDS011;11787;52.018;8.570;2022-07-29T23:32:35;9.30;;;7.88;;
23236;SDS011;11787;52.018;8.570;2022-07-29T23:35:01;8.13;;;6.63;;
23236;SDS011;11787;52.018;8.570;2022-07-29T23:37:29;10.00;;;7.43;;
23236;SDS011;11787;52.018;8.570;2022-07-29T23:39:54;9.43;;;7.30;;
23236;SDS011;11787;52.018;8.570;2022-07-29T23:42:20;10.48;;;7.43;;
23236;SDS011;11787;52.018;8.570;2022-07-29T23:44:46;8.48;;;5.78;;
23236;SDS011;11787;52.018;8.570;2022-07-29T23:47:11;8.20;;;6.38;;
23236;SDS011;11787;52.018;8.570;2022-07-29T23:49:37;7.93;;;6.63;;
23236;SDS011;11787;52.018;8.570;2022-07-29T23:52:03;8.93;;;7.22;;
23236;SDS011;11787;52.018;8.570;2022-07-29T23:54:29;8.05;;;6.05;;
23236;SDS011;11787;52.018;8.570;2022-07-29T23:56:55;9.65;;;6.60;;
23236;SDS011;11787;52.018;8.570;2022-07-29T23:59:23;7.97;;;5.97;;
